Time;durP1;ratioP1;P1;durP2;ratioP2;P2;SDS_P1;SDS_P2;PMS_P1;PMS_P2;Temp;Humidity;BMP_temperature;BMP_pressure;BME280_temperature;BME280_humidity;BME280_pressure;Samples;Min_cycle;Max_cycle;Signal;HPM_P1;HPM_P2
2023/07/13 00:00:10;;;;;;;1999.90;999.90;;;18.50;93.80;;;;;;6669018;89;20313;-78
2023/07/13 00:10:10;;;;;;;1999.90;999.90;;;18.30;95.30;;;;;;6664907;89;20196;-78
2023/07/13 00:20:11;;;;;;;1999.90;999.90;;;18.20;96.60;;;;;;6658298;89;20212;-77
2023/07/13 00:30:12;;;;;;;1999.90;999.90;;;18.00;97.80;;;;;;6664784;88;20225;-77
2023/07/13 00:40:14;;;;;;;1999.90;999.90;;;17.90;98.80;;;;;;6677101;89;20298;-77
2023/07/13 00:50:16;;;;;;;1999.90;999.90;;;17.90;99.50;;;;;;6668540;88;20213;-77
2023/07/13 01:00:18;;;;;;;1999.90;999.90;;;17.80;99.90;;;;;;6668400;88;20232;-77
2023/07/13 01:10:22;;;;;;;1999.90;999.90;;;17.80;99.90;;;;;;6664243;89;20435;-77
2023/07/13 01:20:22;;;;;;;1999.90;999.90;;;17.80;99.90;;;;;;6666295;89;20247;-77
2023/07/13 01:30:23;;;;;;;1999.90;999.90;;;17.70;99.90;;;;;;6670107;88;20354;-77
2023/07/13 01:40:24;;;;;;;1999.90;999.90;;;17.60;99.90;;;;;;6668351;88;20270;-77
2023/07/13 01:50:25;;;;;;;1999.90;999.90;;;17.50;99.90;;;;;;6660690;89;20207;-76
2023/07/13 02:00:26;;;;;;;1999.90;999.90;;;17.40;99.90;;;;;;6665485;88;20204;-76
2023/07/13 02:10:28;;;;;;;1999.90;999.90;;;17.20;99.90;;;;;;6664116;88;20179;-77
2023/07/13 02:20:28;;;;;;;1999.90;999.90;;;17.10;99.90;;;;;;6667014;89;20294;-76
2023/07/13 02:30:30;;;;;;;1999.90;999.90;;;17.10;99.90;;;;;;6676697;89;20192;-77
2023/07/13 02:40:33;;;;;;;1999.90;999.90;;;16.80;99.90;;;;;;6668789;88;20222;-76
2023/07/13 02:50:33;;;;;;;1999.90;999.90;;;16.50;99.90;;;;;;6668806;88;20213;-77
2023/07/13 03:00:34;;;;;;;1999.90;999.90;;;16.40;99.90;;;;;;6664878;88;20211;-77
2023/07/13 03:10:35;;;;;;;1999.90;999.90;;;16.00;99.90;;;;;;6663601;88;20223;-77
2023/07/13 03:20:35;;;;;;;1999.90;999.90;;;15.90;99.90;;;;;;6663029;88;20513;-77
2023/07/13 03:30:36;;;;;;;1999.90;999.90;;;15.90;99.90;;;;;;6662117;88;20255;-77
2023/07/13 03:40:36;;;;;;;1999.90;999.90;;;15.90;99.90;;;;;;6660886;88;20201;-77
2023/07/13 03:50:37;;;;;;;1999.90;999.90;;;16.00;99.90;;;;;;6663641;89;20208;-76
2023/07/13 04:00:38;;;;;;;1999.90;999.90;;;16.00;99.90;;;;;;6662036;89;20498;-77
2023/07/13 04:10:38;;;;;;;1999.90;999.90;;;16.00;99.90;;;;;;6666244;89;20201;-77
2023/07/13 04:20:39;;;;;;;1999.90;999.90;;;16.00;99.90;;;;;;6664204;88;20215;-77
2023/07/13 04:30:39;;;;;;;1999.90;999.90;;;15.90;99.90;;;;;;6660872;88;20336;-77
2023/07/13 04:40:40;;;;;;;1999.90;999.90;;;15.90;99.90;;;;;;6664311;89;21200;-77
2023/07/13 04:50:40;;;;;;;1999.90;999.90;;;15.90;99.90;;;;;;6667005;89;20271;-77
2023/07/13 05:01:03;;;;;;;1999.90;999.90;;;16.00;99.90;;;;;;6660349;89;20220;-77
2023/07/13 05:11:05;;;;;;;1999.90;999.90;;;16.10;99.90;;;;;;6670482;88;20203;-77
2023/07/13 05:21:09;;;;;;;1999.90;999.90;;;16.30;99.90;;;;;;6670487;89;20176;-77
2023/07/13 05:31:10;;;;;;;1999.90;999.90;;;16.40;99.90;;;;;;6668694;89;20202;-78
2023/07/13 05:41:10;;;;;;;1999.90;999.90;;;16.80;99.90;;;;;;6678669;89;20203;-77
2023/07/13 05:51:11;;;;;;;1999.90;999.90;;;16.90;99.90;;;;;;6681399;89;20200;-78
2023/07/13 06:01:14;;;;;;;1999.90;999.90;;;17.30;99.90;;;;;;6677397;88;20231;-78
2023/07/13 06:11:21;;;;;;;1999.90;999.90;;;17.70;99.90;;;;;;6668515;88;20177;-77
2023/07/13 06:21:23;;;;;;;1999.90;999.90;;;18.70;99.90;;;;;;6670916;89;20809;-77
2023/07/13 06:31:24;;;;;;;1999.90;999.90;;;18.80;99.90;;;;;;6672046;88;20210;-78
2023/07/13 06:41:26;;;;;;;1999.90;999.90;;;18.80;99.90;;;;;;6668379;89;20217;-77
2023/07/13 06:51:26;;;;;;;1999.90;999.90;;;18.90;99.90;;;;;;6671453;89;20320;-77
2023/07/13 07:01:27;;;;;;;1999.90;999.90;;;18.90;99.90;;;;;;6672291;88;20252;-77
2023/07/13 07:11:27;;;;;;;1999.90;999.90;;;19.50;99.90;;;;;;6681428;88;20204;-77
2023/07/13 07:21:28;;;;;;;1999.90;999.90;;;21.00;99.90;;;;;;6673654;89;20218;-78
2023/07/13 07:31:28;;;;;;;1999.90;999.90;;;21.70;99.90;;;;;;6671138;89;20171;-77
2023/07/13 07:41:29;;;;;;;1999.90;999.90;;;22.10;99.90;;;;;;6670458;89;20209;-77
2023/07/13 07:51:29;;;;;;;1999.90;999.90;;;22.40;99.90;;;;;;6672431;89;20378;-78
2023/07/13 08:01:30;;;;;;;1999.90;999.90;;;22.80;99.00;;;;;;6674883;88;20204;-78
2023/07/13 08:11:30;;;;;;;1999.90;999.90;;;23.50;98.20;;;;;;6670460;88;20237;-79
2023/07/13 08:21:31;;;;;;;1999.90;999.90;;;23.40;98.10;;;;;;6671767;88;20192;-76
2023/07/13 08:31:32;;;;;;;1999.90;999.90;;;23.40;98.90;;;;;;6672306;89;20636;-77
2023/07/13 08:41:34;;;;;;;1999.90;999.90;;;23.60;98.50;;;;;;6676630;89;20206;-77
2023/07/13 08:51:41;;;;;;;1999.90;999.90;;;23.70;97.50;;;;;;6674606;88;20223;-77
2023/07/13 09:01:59;;;;;;;1999.90;999.90;;;24.10;96.70;;;;;;6686777;88;20612;-77
2023/07/13 09:12:14;;;;;;;1999.90;999.90;;;24.90;94.40;;;;;;6683638;88;20198;-75
2023/07/13 09:22:19;;;;;;;1999.90;999.90;;;24.30;94.40;;;;;;6677981;88;20196;-78
2023/07/13 09:32:24;;;;;;;1999.90;999.90;;;24.70;92.80;;;;;;6681190;88;20230;-77
2023/07/13 09:42:26;;;;;;;1999.90;999.90;;;23.80;94.20;;;;;;6679876;88;20261;-78
2023/07/13 09:52:38;;;;;;;1999.90;999.90;;;23.40;94.50;;;;;;6676833;88;20971;-80
2023/07/13 10:02:38;;;;;;;1999.90;999.90;;;25.00;93.30;;;;;;6682836;88;20216;-79
2023/07/13 10:12:39;;;;;;;1999.90;999.90;;;24.00;93.30;;;;;;6677717;88;20246;-76
2023/07/13 10:22:57;;;;;;;1999.90;999.90;;;25.00;93.40;;;;;;6675145;89;20205;-76
2023/07/13 10:33:03;;;;;;;1999.90;999.90;;;26.50;87.10;;;;;;6675768;88;20198;-78
2023/07/13 10:43:10;;;;;;;1999.90;999.90;;;26.70;92.20;;;;;;6678587;88;20222;-77
2023/07/13 10:53:29;;;;;;;1999.90;999.90;;;26.70;92.10;;;;;;6677012;88;20632;-77
2023/07/13 11:03:32;;;;;;;1999.90;999.90;;;26.60;86.10;;;;;;6685401;77;20182;-75
2023/07/13 11:13:35;;;;;;;1999.90;999.90;;;25.90;84.80;;;;;;6715060;88;20190;-75
2023/07/13 11:23:42;;;;;;;1999.90;999.90;;;25.10;84.50;;;;;;6713132;88;20209;-75
2023/07/13 11:33:43;;;;;;;1999.90;999.90;;;23.80;87.20;;;;;;6707766;88;20204;-75
2023/07/13 11:43:44;;;;;;;1999.90;999.90;;;24.70;85.60;;;;;;6704681;88;20255;-75
2023/07/13 11:53:47;;;;;;;1999.90;999.90;;;24.40;85.60;;;;;;6708517;88;20236;-76
2023/07/13 12:03:49;;;;;;;1999.90;999.90;;;23.90;87.50;;;;;;6705067;88;20250;-76
2023/07/13 12:13:50;;;;;;;1999.90;999.90;;;23.60;85.30;;;;;;6703634;88;20339;-76
2023/07/13 12:23:51;;;;;;;1999.90;999.90;;;23.70;86.90;;;;;;6703177;88;20229;-76
2023/07/13 12:34:19;;;;;;;1999.90;999.90;;;24.40;86.90;;;;;;6702203;88;20627;-76
2023/07/13 12:44:29;;;;;;;1999.90;999.90;;;24.60;86.70;;;;;;6714753;88;20717;-75
2023/07/13 12:54:30;;;;;;;1999.90;999.90;;;24.10;90.80;;;;;;6716417;88;20186;-77
2023/07/13 13:04:31;;;;;;;1999.90;999.90;;;24.20;90.50;;;;;;6703388;88;20220;-75
2023/07/13 13:14:32;;;;;;;1999.90;999.90;;;24.50;89.20;;;;;;6714023;88;20289;-74
2023/07/13 13:24:32;;;;;;;1999.90;999.90;;;24.00;89.90;;;;;;6713234;88;20288;-76
2023/07/13 13:34:34;;;;;;;1999.90;999.90;;;23.90;87.60;;;;;;6704698;88;20200;-76
2023/07/13 13:44:34;;;;;;;1999.90;999.90;;;24.20;89.70;;;;;;6706456;88;20316;-76
2023/07/13 13:54:35;;;;;;;1999.90;999.90;;;24.50;88.30;;;;;;6710372;88;20191;-76
2023/07/13 14:04:35;;;;;;;1999.90;999.90;;;24.70;88.10;;;;;;6710201;88;20324;-76
2023/07/13 14:14:36;;;;;;;1999.90;999.90;;;25.70;84.90;;;;;;6706472;88;20241;-75
2023/07/13 14:24:37;;;;;;;1999.90;999.90;;;26.50;83.20;;;;;;6703875;88;20681;-75
2023/07/13 14:34:38;;;;;;;1999.90;999.90;;;25.70;84.70;;;;;;6704358;88;20556;-76
2023/07/13 14:44:40;;;;;;;1999.90;999.90;;;25.90;83.30;;;;;;6706232;88;20198;-76
2023/07/13 14:54:43;;;;;;;1999.90;999.90;;;26.40;82.00;;;;;;6707267;88;20221;-76
2023/07/13 15:04:44;;;;;;;;;;;25.90;82.20;;;;;;6704998;88;20312;-76
2023/07/13 15:14:44;;;;;;;1999.90;999.90;;;24.90;84.30;;;;;;6701101;88;20058;-76
2023/07/13 15:24:45;;;;;;;1999.90;999.90;;;25.50;83.40;;;;;;6717437;88;20236;-77
2023/07/13 15:34:45;;;;;;;1999.90;999.90;;;26.10;81.00;;;;;;6708133;88;20204;-76
2023/07/13 15:44:47;;;;;;;1999.90;999.90;;;26.40;80.10;;;;;;6701097;88;20322;-77
2023/07/13 15:54:48;;;;;;;1999.90;999.90;;;26.30;80.70;;;;;;6705809;88;20201;-76
2023/07/13 16:04:49;;;;;;;1999.90;999.90;;;26.70;80.50;;;;;;6706831;88;20301;-76
2023/07/13 16:14:49;;;;;;;1999.90;999.90;;;26.40;81.40;;;;;;6706850;88;20213;-77
2023/07/13 16:24:54;;;;;;;1999.90;999.90;;;25.30;83.30;;;;;;6710270;88;20196;-76
2023/07/13 16:34:55;;;;;;;1999.90;999.90;;;24.90;83.80;;;;;;6703250;88;20190;-76
2023/07/13 16:44:56;;;;;;;1999.90;999.90;;;24.50;85.20;;;;;;6713044;88;20193;-78
2023/07/13 16:54:57;;;;;;;1999.90;999.90;;;24.20;87.60;;;;;;6714137;88;20626;-77
2023/07/13 17:15:01;;;;;;;1999.90;999.90;;;23.40;91.70;;;;;;6715071;88;20761;-79
2023/07/13 17:25:12;;;;;;;1999.90;999.90;;;23.20;92.60;;;;;;6706958;88;20241;-81
2023/07/13 17:35:24;;;;;;;1999.90;999.90;;;23.00;93.00;;;;;;6713877;88;20639;-80
2023/07/13 17:45:28;;;;;;;1999.90;999.90;;;22.90;93.70;;;;;;6704132;88;20170;-80
2023/07/13 17:55:29;;;;;;;1999.90;999.90;;;22.80;93.80;;;;;;6709705;88;20578;-80
2023/07/13 18:05:30;;;;;;;1999.90;999.90;;;22.50;94.70;;;;;;6701649;88;20291;-80
2023/07/13 18:15:31;;;;;;;1999.90;999.90;;;22.40;94.40;;;;;;6701390;88;20191;-79
2023/07/13 18:25:32;;;;;;;1999.90;999.90;;;22.30;94.40;;;;;;6702077;88;20288;-77
2023/07/13 18:35:34;;;;;;;1999.90;999.90;;;22.10;95.10;;;;;;6714010;88;20213;-78
2023/07/13 18:45:35;;;;;;;1999.90;999.90;;;22.00;95.10;;;;;;6696564;88;20296;-79
2023/07/13 18:55:36;;;;;;;1999.90;999.90;;;21.90;96.40;;;;;;6700724;88;20381;-77
2023/07/13 19:05:36;;;;;;;1999.90;999.90;;;21.60;99.10;;;;;;6695830;88;20614;-76
2023/07/13 19:15:37;;;;;;;1999.90;999.90;;;21.30;99.90;;;;;;6696233;88;20244;-76
2023/07/13 19:39:39;;;;;;;1999.90;999.90;;;23.20;99.90;;;;;;6787495;86;20223;-78
2023/07/13 19:49:40;;;;;;;1999.90;999.90;;;22.20;99.90;;;;;;6770685;87;20194;-78
2023/07/13 19:59:41;;;;;;;1999.90;999.90;;;21.20;99.90;;;;;;6772518;87;20216;-78
2023/07/13 20:09:48;;;;;;;1999.90;999.90;;;20.80;99.90;;;;;;6780230;87;20284;-77
2023/07/13 20:19:48;;;;;;;1999.90;999.90;;;20.40;99.90;;;;;;6773255;87;20644;-77
2023/07/13 20:29:49;;;;;;;1999.90;999.90;;;20.10;99.90;;;;;;6767068;87;20220;-77
2023/07/13 20:39:49;;;;;;;1999.90;999.90;;;19.80;99.90;;;;;;6772466;87;20183;-78
2023/07/13 20:49:52;;;;;;;1999.90;999.90;;;19.50;99.90;;;;;;6761539;87;20192;-78
2023/07/13 20:59:53;;;;;;;1999.90;999.90;;;19.40;99.90;;;;;;6765586;87;20188;-77
2023/07/13 21:09:54;;;;;;;1999.90;999.90;;;19.20;99.90;;;;;;6765133;87;20210;-78
2023/07/13 21:19:54;;;;;;;1999.90;999.90;;;19.00;99.90;;;;;;6761721;87;20673;-77
2023/07/13 21:29:55;;;;;;;1999.90;999.90;;;18.80;99.90;;;;;;6769501;87;20564;-77
2023/07/13 21:39:56;;;;;;;1999.90;999.90;;;18.60;99.90;;;;;;6763219;87;20189;-78
2023/07/13 21:49:56;;;;;;;1999.90;999.90;;;18.40;99.90;;;;;;6774158;87;20353;-78
2023/07/13 21:59:57;;;;;;;1999.90;999.90;;;18.10;99.90;;;;;;6764644;87;20184;-77
2023/07/13 22:09:57;;;;;;;1999.90;999.90;;;17.90;99.90;;;;;;6764519;87;20184;-78
2023/07/13 22:19:58;;;;;;;1999.90;999.90;;;17.60;99.90;;;;;;6766346;87;20204;-79
2023/07/13 22:29:58;;;;;;;1999.90;999.90;;;17.40;99.90;;;;;;6756027;87;20716;-77
2023/07/13 22:40:00;;;;;;;1999.90;999.90;;;17.40;99.90;;;;;;6768542;87;20180;-77
2023/07/13 22:50:01;;;;;;;1999.90;999.90;;;17.50;99.90;;;;;;6762634;87;20750;-77
2023/07/13 23:00:08;;;;;;;1999.90;999.90;;;17.50;99.90;;;;;;6761137;87;20366;-77
2023/07/13 23:10:16;;;;;;;1999.90;999.90;;;17.10;99.90;;;;;;6751452;76;20210;-76
2023/07/13 23:20:29;;;;;;;1999.90;999.90;;;16.90;99.90;;;;;;6735578;88;20312;-76
2023/07/13 23:30:31;;;;;;;1999.90;999.90;;;16.70;99.90;;;;;;6735019;88;21285;-76
2023/07/13 23:40:32;;;;;;;1999.90;999.90;;;16.50;99.90;;;;;;6737137;88;20238;-76
2023/07/13 23:50:33;;;;;;;1999.90;999.90;;;16.40;99.90;;;;;;6734199;87;20259;-76
